Time;durP1;ratioP1;P1;durP2;ratioP2;P2;SDS_P1;SDS_P2;PMS_P1;PMS_P2;Temp;Humidity;BMP_temperature;BMP_pressure;BME280_temperature;BME280_humidity;BME280_pressure;Samples;Min_cycle;Max_cycle;Signal;HPM_P1;HPM_P2
2023/09/28 00:02:17;;;;;;;;;13.25;9.50;;;;;21.83;65.10;101084.00;4939617;28;45309;-68
2023/09/28 00:04:42;;;;;;;;;8.67;7.00;;;;;21.45;65.63;101040.53;4948630;28;45891;-69
2023/09/28 00:07:08;;;;;;;;;13.00;10.00;;;;;21.77;65.72;101101.06;4955408;28;45465;-70
2023/09/28 00:09:33;;;;;;;;;10.33;10.33;;;;;21.52;65.60;101058.41;4945419;28;45426;-70
2023/09/28 00:11:58;;;;;;;;;9.67;8.67;;;;;21.66;65.85;101088.19;4943695;28;48832;-75
2023/09/28 00:14:24;;;;;;;;;9.67;8.67;;;;;21.30;65.41;101029.91;4955435;28;56725;-69
2023/09/28 00:16:49;;;;;;;;;9.00;7.33;;;;;21.56;65.56;101081.28;4947915;28;45882;-69
2023/09/28 00:19:15;;;;;;;;;9.00;9.00;;;;;21.40;65.55;101059.22;4942711;28;45447;-69
2023/09/28 00:21:40;;;;;;;;;12.00;8.00;;;;;21.61;65.58;101099.59;4947482;28;45179;-69
2023/09/28 00:24:09;;;;;;;;;9.00;9.00;;;;;21.20;65.65;101042.94;4939831;28;45666;-69
2023/09/28 00:26:35;;;;;;;;;8.67;8.67;;;;;21.49;65.77;101093.16;4948286;28;45431;-69
2023/09/28 00:29:00;;;;;;;;;8.00;8.00;;;;;21.53;65.63;101103.34;4947911;28;45381;-69
2023/09/28 00:31:25;;;;;;;;;11.00;9.33;;;;;21.35;65.74;101077.97;4948284;28;45646;-69
2023/09/28 00:33:51;;;;;;;;;10.67;10.67;;;;;21.50;65.50;101103.78;4940396;28;45491;-67
2023/09/28 00:36:16;;;;;;;;;9.33;7.67;;;;;21.48;65.89;101116.69;4940419;28;45393;-70
2023/09/28 00:38:42;;;;;;;;;10.25;7.50;;;;;21.41;65.83;101126.63;4948074;28;45363;-68
2023/09/28 00:41:07;;;;;;;;;11.67;10.00;;;;;21.40;65.97;101133.09;4946525;28;45675;-68
2023/09/28 00:43:34;;;;;;;;;7.00;6.67;;;;;21.35;66.08;101130.19;4942501;28;61014;-70
2023/09/28 00:46:00;;;;;;;;;9.33;7.67;;;;;21.40;66.14;101140.38;4950591;28;45651;-68
2023/09/28 00:48:26;;;;;;;;;14.00;9.33;;;;;21.42;66.14;101143.69;4951509;28;45404;-70
2023/09/28 00:50:52;;;;;;;;;10.67;7.00;;;;;21.23;65.84;101104.75;4955993;28;45458;-69
2023/09/28 00:53:20;;;;;;;;;11.00;9.33;;;;;21.49;66.03;101139.16;4939974;28;45471;-69
2023/09/28 00:55:47;;;;;;;;;13.00;11.00;;;;;21.46;65.73;101135.00;4940385;28;45421;-69
2023/09/28 00:58:12;;;;;;;;;11.67;11.33;;;;;21.51;65.72;101134.38;4954797;28;45458;-69
2023/09/28 01:00:40;;;;;;;;;8.67;8.67;;;;;21.53;65.36;101135.81;4948038;28;45539;-68
2023/09/28 01:03:06;;;;;;;;;8.00;6.67;;;;;21.56;65.05;101142.69;4947665;28;45647;-69
2023/09/28 01:05:40;;;;;;;;;6.00;6.00;;;;;21.62;65.29;101138.31;4947570;28;45532;-68
2023/09/28 01:08:15;;;;;;;;;6.00;6.00;;;;;21.60;64.81;101132.28;4947555;28;45645;-68
2023/09/28 01:10:41;;;;;;;;;8.33;7.67;;;;;21.60;64.74;101137.69;4940175;28;45486;-68
2023/09/28 01:13:11;;;;;;;;;7.33;7.33;;;;;21.58;64.46;101132.50;4956647;28;46560;-68
2023/09/28 01:15:43;;;;;;;;;6.00;5.67;;;;;21.55;64.78;101128.34;4950692;28;45255;-68
2023/09/28 01:18:15;;;;;;;;;5.50;5.50;;;;;21.56;64.90;101121.88;4948975;28;45314;-69
2023/09/28 01:20:41;;;;;;;;;8.00;6.67;;;;;21.56;64.56;101113.75;4947482;28;46414;-68
2023/09/28 01:23:06;;;;;;;;;5.00;5.00;;;;;21.34;64.91;101082.53;4940604;28;46605;-69
2023/09/28 01:25:33;;;;;;;;;8.33;7.33;;;;;21.36;64.90;101099.38;4947219;28;45264;-70
2023/09/28 01:27:59;;;;;;;;;6.00;6.00;;;;;21.37;65.28;101109.16;4947111;28;45235;-68
2023/09/28 01:30:25;;;;;;;;;5.67;4.33;;;;;21.28;65.16;101110.41;4947296;28;45589;-69
2023/09/28 01:32:52;;;;;;;;;14.33;8.00;;;;;21.37;65.53;101140.78;4947209;28;46601;-69
2023/09/28 01:35:18;;;;;;;;;9.00;6.00;;;;;21.38;65.31;101137.88;4945448;28;45501;-71
2023/09/28 01:38:02;;;;;;;;;7.00;7.00;;;;;21.35;65.19;101135.59;4939128;28;45530;-69
2023/09/28 01:40:27;;;;;;;;;10.00;8.00;;;;;21.31;65.43;101133.50;4947695;28;45252;-69
2023/09/28 01:42:53;;;;;;;;;6.00;6.00;;;;;21.30;65.31;101135.38;4949431;28;47166;-68
2023/09/28 01:45:19;;;;;;;;;6.33;6.00;;;;;21.28;65.29;101134.75;4958150;28;45343;-68
2023/09/28 01:47:44;;;;;;;;;11.33;7.00;;;;;20.97;65.70;101086.59;4948096;28;45157;-69
2023/09/28 01:50:09;;;;;;;;;7.33;7.33;;;;;21.29;65.73;101151.81;4944796;28;45168;-68
2023/09/28 01:52:35;;;;;;;;;6.00;5.67;;;;;21.07;65.92;101115.94;4940068;28;46518;-70
2023/09/28 01:55:00;;;;;;;;;7.33;7.00;;;;;20.92;65.96;101094.47;4939473;28;45543;-68
2023/09/28 01:57:25;;;;;;;;;6.00;6.00;;;;;21.21;66.07;101158.19;4947095;28;45475;-69
2023/09/28 01:59:51;;;;;;;;;7.67;7.67;;;;;21.21;65.92;101169.00;4940101;28;45283;-69
2023/09/28 02:02:16;;;;;;;;;6.67;6.00;;;;;21.08;66.12;101147.34;4953301;28;46353;-69
2023/09/28 02:04:42;;;;;;;;;7.00;7.00;;;;;21.17;66.07;101167.75;4946360;28;45577;-69
2023/09/28 02:07:08;;;;;;;;;9.00;7.00;;;;;21.17;66.18;101151.53;4945998;28;45430;-68
2023/09/28 02:09:34;;;;;;;;;11.00;6.00;;;;;21.17;66.00;101165.88;4952474;28;45509;-68
2023/09/28 02:12:00;;;;;;;;;5.33;5.33;;;;;21.18;65.90;101166.72;4948454;28;46536;-70
2023/09/28 02:14:26;;;;;;;;;6.67;6.33;;;;;21.18;66.27;101167.53;4946913;28;45513;-69
2023/09/28 02:16:52;;;;;;;;;4.00;4.00;;;;;21.20;66.22;101167.34;4946820;28;45487;-69
2023/09/28 02:19:17;;;;;;;;;6.33;6.33;;;;;21.19;66.18;101152.16;4946201;28;45502;-69
2023/09/28 02:21:43;;;;;;;;;7.00;6.25;;;;;21.22;66.25;101159.84;4950807;28;68317;-69
2023/09/28 02:24:09;;;;;;;;;5.50;5.50;;;;;21.23;66.15;101151.56;4948731;28;45338;-69
2023/09/28 02:26:34;;;;;;;;;7.25;7.25;;;;;21.23;66.17;101154.28;4949609;28;45383;-69
2023/09/28 02:29:00;;;;;;;;;6.50;5.50;;;;;21.24;65.99;101158.66;4942990;28;45432;-68
2023/09/28 02:31:27;;;;;;;;;6.00;6.00;;;;;21.28;66.13;101159.09;4948230;28;45559;-68
2023/09/28 02:33:52;;;;;;;;;5.00;5.00;;;;;21.07;66.04;101122.19;4943976;28;45333;-69
2023/09/28 02:36:18;;;;;;;;;10.67;7.67;;;;;21.31;65.98;101161.38;4946059;28;45338;-69
2023/09/28 02:38:43;;;;;;;;;5.50;5.50;;;;;21.28;65.75;101159.09;4942782;28;45243;-69
2023/09/28 02:41:19;;;;;;;;;6.50;5.75;;;;;21.34;65.88;101152.03;4949139;28;45741;-68
2023/09/28 02:43:44;;;;;;;;;6.50;6.25;;;;;21.25;65.65;101137.88;4946283;28;46712;-69
2023/09/28 02:46:10;;;;;;;;;6.67;6.33;;;;;21.36;65.80;101161.59;4930999;28;45390;-68
2023/09/28 02:48:36;;;;;;;;;6.67;4.67;;;;;21.40;65.87;101153.91;4949810;28;45354;-68
2023/09/28 02:51:03;;;;;;;;;5.50;5.50;;;;;21.39;65.63;101147.66;4942182;28;46014;-68
2023/09/28 02:53:29;;;;;;;;;6.00;6.00;;;;;21.37;65.43;101136.22;4941366;28;45482;-69
2023/09/28 02:55:55;;;;;;;;;6.25;5.75;;;;;21.35;65.45;101146.41;4956064;28;45234;-69
2023/09/28 02:58:22;;;;;;;;;5.25;5.25;;;;;21.37;65.51;101141.63;4949827;28;45606;-69
2023/09/28 03:00:47;;;;;;;;;6.75;5.00;;;;;21.27;65.62;101141.19;4956956;28;45832;-68
2023/09/28 03:03:12;;;;;;;;;6.00;5.67;;;;;21.31;66.38;101158.69;4956002;28;45508;-69
2023/09/28 03:05:38;;;;;;;;;5.00;4.00;;;;;20.23;65.92;100976.59;4944318;28;45577;-69
2023/09/28 03:08:09;;;;;;;;;5.67;4.67;;;;;21.19;66.16;101160.25;4955447;28;45468;-68
2023/09/28 03:10:39;;;;;;;;;5.67;5.67;;;;;21.21;66.39;101169.00;4948446;28;47838;-69
2023/09/28 03:13:05;;;;;;;;;5.00;5.00;;;;;21.23;66.05;101173.19;4946211;28;45469;-67
2023/09/28 03:15:31;;;;;;;;;6.33;6.33;;;;;20.93;66.05;101107.78;4952468;28;45307;-69
2023/09/28 03:17:57;;;;;;;;;5.67;4.00;;;;;21.17;66.04;101146.13;4945518;28;45210;-69
2023/09/28 03:20:25;;;;;;;;;6.00;6.00;;;;;21.26;66.25;101174.69;4945543;28;46612;-69
2023/09/28 03:22:50;;;;;;;;;4.00;4.00;;;;;21.24;66.04;101174.06;4951176;28;45387;-69
2023/09/28 03:25:17;;;;;;;;;5.00;5.00;;;;;21.24;66.04;101168.66;4952390;28;45280;-69
2023/09/28 03:27:45;;;;;;;;;4.33;4.33;;;;;21.25;66.07;101189.25;4942831;28;45477;-70
2023/09/28 03:30:12;;;;;;;;;2.00;2.00;;;;;21.14;66.09;101173.56;4951496;28;46606;-68
2023/09/28 03:32:39;;;;;;;;;7.00;6.00;;;;;21.12;66.16;101170.22;4952158;28;45276;-69
2023/09/28 03:35:08;;;;;;;;;5.33;5.33;;;;;21.20;66.36;101191.66;4952035;28;45482;-68
2023/09/28 03:37:34;;;;;;;;;5.00;5.00;;;;;21.13;66.66;101183.56;4952333;28;45510;-68
2023/09/28 03:40:00;;;;;;;;;5.33;4.00;;;;;21.03;66.55;101172.28;4941957;28;47461;-68
2023/09/28 03:42:27;;;;;;;;;6.33;5.00;;;;;21.12;66.58;101192.69;4941324;28;45494;-68
2023/09/28 03:44:53;;;;;;;;;6.00;6.00;;;;;21.12;66.56;101202.69;4947509;28;45454;-69
2023/09/28 03:47:19;;;;;;;;;9.00;8.00;;;;;21.07;66.98;101194.34;4945411;28;45400;-69
2023/09/28 03:49:44;;;;;;;;;6.00;5.00;;;;;21.08;66.94;101190.59;4944031;28;45534;-77
2023/09/28 03:52:09;;;;;;;;;7.00;6.00;;;;;20.73;67.23;101136.59;4950803;28;45523;-69
2023/09/28 03:54:35;;;;;;;;;6.33;5.33;;;;;20.73;67.03;101139.31;4945896;28;45507;-69
2023/09/28 03:57:00;;;;;;;;;7.67;7.67;;;;;21.06;67.35;101203.50;4941665;28;45239;-69
2023/09/28 03:59:25;;;;;;;;;7.00;6.00;;;;;21.09;67.18;101203.09;4951488;28;52223;-69
2023/09/28 04:01:51;;;;;;;;;7.00;7.00;;;;;21.05;66.76;101201.81;4944006;28;45251;-69
2023/09/28 04:04:16;;;;;;;;;7.33;5.67;;;;;21.08;64.88;101212.25;4934014;28;45534;-68
2023/09/28 04:06:41;;;;;;;;;3.00;3.00;;;;;20.95;62.17;101200.31;4951909;28;45229;-68
2023/09/28 04:09:07;;;;;;;;;4.25;3.25;;;;;20.55;60.95;101136.31;4943060;28;46600;-69
2023/09/28 04:11:34;;;;;;;;;5.67;4.00;;;;;20.90;60.53;101208.19;4951526;28;45523;-69
2023/09/28 04:14:01;;;;;;;;;4.00;4.00;;;;;20.83;60.22;101207.34;4943483;28;45260;-69
2023/09/28 04:16:26;;;;;;;;;4.67;2.33;;;;;20.74;60.15;101195.00;4948099;28;45533;-69
2023/09/28 04:18:52;;;;;;;;;5.25;4.00;;;;;20.76;59.71;101205.63;4941295;28;45343;-67
2023/09/28 04:21:17;;;;;;;;;3.00;3.00;;;;;20.85;59.00;101229.59;4949464;28;52888;-69
2023/09/28 04:23:42;;;;;;;;;3.25;2.00;;;;;20.86;58.94;101222.31;4946117;28;45458;-68
2023/09/28 04:26:08;;;;;;;;;3.00;1.50;;;;;20.79;58.26;101207.91;4955604;28;45606;-68
2023/09/28 04:28:33;;;;;;;;;4.25;3.00;;;;;20.90;58.37;101227.13;4947503;28;45598;-67
2023/09/28 04:30:59;;;;;;;;;4.00;4.00;;;;;20.60;58.41;101182.44;4938638;28;45554;-68
2023/09/28 04:33:24;;;;;;;;;4.50;2.00;;;;;20.93;58.29;101240.22;4948411;28;45605;-68
2023/09/28 04:35:50;;;;;;;;;9.75;3.00;;;;;20.96;57.17;101247.94;4948242;28;45508;-69
2023/09/28 04:38:15;;;;;;;;;3.25;1.25;;;;;20.89;57.29;101230.84;4939871;28;46541;-68
2023/09/28 04:40:41;;;;;;;;;3.00;2.00;;;;;20.93;57.20;101232.13;4950630;28;45296;-68
2023/09/28 04:43:08;;;;;;;;;4.25;3.00;;;;;20.98;56.57;101238.78;4950954;28;45469;-68
2023/09/28 04:45:33;;;;;;;;;4.50;3.50;;;;;20.99;56.82;101245.88;4943297;28;45388;-68
2023/09/28 04:47:59;;;;;;;;;2.00;2.00;;;;;20.60;56.44;101171.66;4950508;28;46755;-69
2023/09/28 04:50:25;;;;;;;;;5.00;3.00;;;;;20.80;56.40;101204.19;4941310;28;45534;-69
2023/09/28 04:52:50;;;;;;;;;1.25;1.25;;;;;20.95;56.06;101235.44;4951724;28;45406;-69
2023/09/28 04:55:16;;;;;;;;;4.33;2.00;;;;;21.00;56.43;101239.41;4943735;28;46790;-69
2023/09/28 04:57:41;;;;;;;;;4.25;3.00;;;;;20.67;55.94;101183.34;4941099;28;46709;-69
2023/09/28 05:00:10;;;;;;;;;7.25;4.25;;;;;20.99;55.91;101237.75;4947537;28;45461;-68
2023/09/28 05:02:36;;;;;;;;;1.25;1.25;;;;;20.95;55.78;101235.44;4947090;28;45512;-69
2023/09/28 05:05:01;;;;;;;;;8.00;7.67;;;;;20.99;55.73;101237.75;4947896;28;45442;-70
2023/09/28 05:07:27;;;;;;;;;4.50;2.75;;;;;20.93;55.70;101232.13;4946808;28;46656;-69
2023/09/28 05:09:52;;;;;;;;;3.00;3.00;;;;;20.99;55.64;101245.88;4933691;28;50191;-68
2023/09/28 05:12:17;;;;;;;;;2.75;2.00;;;;;20.96;55.74;101242.53;4943808;28;45404;-69
2023/09/28 05:14:43;;;;;;;;;3.25;2.00;;;;;20.99;56.05;101245.88;4945286;28;45500;-67
2023/09/28 05:17:08;;;;;;;;;11.33;8.00;;;;;20.95;56.01;101245.44;4944156;28;53598;-69
2023/09/28 05:19:33;;;;;;;;;2.75;2.75;;;;;20.94;56.05;101250.00;4949753;28;45405;-69
2023/09/28 05:21:59;;;;;;;;;3.00;2.33;;;;;20.93;55.96;101251.03;4949987;28;45581;-69
2023/09/28 05:24:24;;;;;;;;;7.00;3.33;;;;;20.80;56.31;101247.41;4950122;28;45457;-68
2023/09/28 05:26:50;;;;;;;;;4.00;2.00;;;;;20.75;56.06;101239.91;4947169;28;45761;-69
2023/09/28 05:29:15;;;;;;;;;3.33;2.00;;;;;20.49;56.44;101193.84;4951419;28;45777;-70
2023/09/28 05:31:41;;;;;;;;;3.67;2.67;;;;;20.71;55.95;101238.66;4935105;28;45336;-69
2023/09/28 05:34:06;;;;;;;;;4.67;2.00;;;;;20.54;56.35;101216.50;4948918;28;45627;-69
2023/09/28 05:36:32;;;;;;;;;1.67;1.33;;;;;20.67;56.30;101248.19;4950273;28;45665;-69
2023/09/28 05:38:58;;;;;;;;;7.00;7.00;;;;;20.63;56.27;101249.63;4946433;28;45253;-69
2023/09/28 05:41:23;;;;;;;;;5.25;2.50;;;;;20.78;56.58;101271.09;4939441;28;45519;-68
2023/09/28 05:43:48;;;;;;;;;3.25;2.75;;;;;20.71;56.85;101264.84;4951891;28;45509;-78
2023/09/28 05:46:14;;;;;;;;;3.25;3.25;;;;;20.63;56.53;101257.72;4955661;28;56308;-70
2023/09/28 05:48:40;;;;;;;;;4.00;2.50;;;;;20.70;56.45;101263.16;4942012;28;45271;-72
2023/09/28 05:51:05;;;;;;;;;3.50;2.25;;;;;20.74;56.32;101284.19;4946416;28;45413;-69
2023/09/28 05:53:30;;;;;;;;;6.00;3.00;;;;;20.78;55.93;101301.66;4946581;28;45283;-69
2023/09/28 05:55:56;;;;;;;;;4.00;3.00;;;;;20.80;56.04;101302.31;4940137;28;47688;-70
2023/09/28 05:58:21;;;;;;;;;3.25;2.00;;;;;20.80;55.50;101301.47;4945387;28;45524;-69
2023/09/28 06:00:46;;;;;;;;;5.00;2.25;;;;;20.64;55.28;101260.22;4941323;28;48293;-70
2023/09/28 06:03:12;;;;;;;;;3.00;2.00;;;;;20.81;55.34;101281.50;4954036;28;45323;-69
2023/09/28 06:05:38;;;;;;;;;4.00;1.50;;;;;20.80;55.26;101291.50;4938336;28;46575;-69
2023/09/28 06:08:04;;;;;;;;;2.00;1.50;;;;;20.81;55.07;101293.16;4947837;28;45307;-68
2023/09/28 06:10:29;;;;;;;;;6.67;4.00;;;;;20.70;55.07;101279.38;4949164;28;45536;-69
2023/09/28 06:12:54;;;;;;;;;6.33;3.67;;;;;20.75;55.21;101277.75;4941030;28;45336;-69
2023/09/28 06:15:20;;;;;;;;;6.67;4.67;;;;;20.60;54.96;101253.53;4945764;28;46424;-70
2023/09/28 06:17:45;;;;;;;;;3.75;1.00;;;;;20.83;54.78;101291.13;4942578;28;45619;-69
2023/09/28 06:20:11;;;;;;;;;4.25;3.25;;;;;20.80;55.01;101296.91;4947959;28;45325;-71
2023/09/28 06:22:37;;;;;;;;;4.00;3.75;;;;;20.80;55.07;101287.94;4954998;28;45617;-68
2023/09/28 06:25:03;;;;;;;;;4.50;4.25;;;;;20.89;55.15;101309.25;4944694;28;46361;-68
2023/09/28 06:27:28;;;;;;;;;6.00;4.00;;;;;20.87;54.77;101305.91;4949084;28;45402;-69
2023/09/28 06:29:54;;;;;;;;;2.00;1.00;;;;;20.92;54.57;101319.66;4945203;28;45459;-69
2023/09/28 06:32:21;;;;;;;;;7.33;4.67;;;;;20.91;55.17;101315.28;4938563;28;45619;-69
2023/09/28 06:34:47;;;;;;;;;5.33;3.67;;;;;20.72;54.84;101278.16;4949203;28;46552;-69
2023/09/28 06:37:12;;;;;;;;;9.00;6.00;;;;;20.90;54.35;101302.81;4950817;28;45447;-69
2023/09/28 06:39:38;;;;;;;;;7.00;4.00;;;;;20.90;54.65;101292.00;4942383;28;45363;-72
2023/09/28 06:42:04;;;;;;;;;4.50;3.25;;;;;21.03;54.63;101314.75;4941125;28;45361;-74
2023/09/28 06:44:30;;;;;;;;;3.75;3.00;;;;;20.97;54.36;101302.84;4949418;28;45480;-74
2023/09/28 06:46:56;;;;;;;;;6.00;2.75;;;;;21.03;53.87;101320.16;4938199;28;45498;-70
2023/09/28 06:49:22;;;;;;;;;8.00;3.33;;;;;21.04;53.45;101321.81;4945003;28;45328;-67
2023/09/28 06:51:49;;;;;;;;;2.33;2.00;;;;;21.00;53.16;101317.81;4950618;28;45541;-68
2023/09/28 06:54:14;;;;;;;;;5.67;3.00;;;;;21.03;53.43;101333.66;4953569;28;46664;-68
2023/09/28 06:56:40;;;;;;;;;3.00;2.67;;;;;21.07;53.81;101329.53;4943380;28;45462;-68
2023/09/28 06:59:07;;;;;;;;;4.00;2.25;;;;;21.04;53.37;101313.72;4943104;28;45466;-68
2023/09/28 07:01:33;;;;;;;;;7.00;3.00;;;;;21.08;53.70;101313.09;4948565;28;45616;-68
2023/09/28 07:03:59;;;;;;;;;6.50;5.50;;;;;20.88;53.41;101283.25;4946659;28;48186;-68
2023/09/28 07:06:24;;;;;;;;;6.00;4.33;;;;;21.15;53.74;101313.97;4937971;28;45501;-68
2023/09/28 07:08:50;;;;;;;;;6.00;3.67;;;;;21.17;53.39;101292.97;4943641;28;45318;-68
2023/09/28 07:11:15;;;;;;;;;5.00;5.00;;;;;21.38;53.17;101308.28;4937447;28;45585;-70
2023/09/28 07:13:41;;;;;;;;;5.50;4.00;;;;;21.44;52.67;101298.56;4939599;28;47652;-67
2023/09/28 07:16:07;;;;;;;;;5.00;2.00;;;;;21.72;51.89;101322.78;4945078;28;45473;-67
2023/09/28 07:18:33;;;;;;;;;6.33;5.33;;;;;21.85;51.64;101309.31;4953059;28;45320;-69
2023/09/28 07:20:58;;;;;;;;;7.25;4.25;;;;;22.19;50.76;101334.59;4954076;28;45394;-69
2023/09/28 07:23:24;;;;;;;;;11.67;9.00;;;;;22.48;50.35;101336.09;4945866;28;45591;-69
2023/09/28 07:25:51;;;;;;;;;2.25;2.00;;;;;22.69;49.39;101344.03;4947764;28;45421;-72
2023/09/28 07:28:16;;;;;;;;;5.00;4.00;;;;;22.62;48.90;101322.31;4941094;28;45458;-71
2023/09/28 07:30:42;;;;;;;;;3.75;2.25;;;;;22.94;48.24;101366.75;4946280;28;45420;-69
2023/09/28 07:33:07;;;;;;;;;5.25;4.25;;;;;23.02;48.25;101374.66;4950951;28;47123;-70
2023/09/28 07:35:33;;;;;;;;;4.25;1.75;;;;;23.17;47.91;101381.75;4942602;28;45617;-71
2023/09/28 07:37:58;;;;;;;;;6.33;3.00;;;;;23.18;47.80;101392.38;4947675;28;45514;-69
2023/09/28 07:40:25;;;;;;;;;5.67;3.33;;;;;23.20;47.52;101392.16;4950863;28;45616;-70
2023/09/28 07:42:50;;;;;;;;;5.33;4.33;;;;;23.12;47.46;101368.00;4944737;28;46623;-69
2023/09/28 07:45:18;;;;;;;;;3.00;3.00;;;;;23.09;47.25;101374.66;4956230;28;45458;-69
2023/09/28 07:47:44;;;;;;;;;6.50;2.25;;;;;23.06;47.46;101375.09;4950765;28;45339;-70
2023/09/28 07:50:14;;;;;;;;;5.50;3.00;;;;;23.09;47.02;101377.38;4953274;28;45429;-69
2023/09/28 07:52:40;;;;;;;;;3.00;2.00;;;;;23.07;47.19;101374.06;4951478;28;45932;-70
2023/09/28 07:55:07;;;;;;;;;4.50;2.50;;;;;23.13;46.92;101367.78;4945358;28;45490;-69
2023/09/28 07:57:32;;;;;;;;;5.25;3.75;;;;;23.04;46.59;101355.50;4947830;28;45344;-70
2023/09/28 07:59:58;;;;;;;;;4.50;3.50;;;;;23.22;46.67;101385.47;4948176;28;45222;-68
2023/09/28 08:02:24;;;;;;;;;5.00;5.00;;;;;23.19;46.88;101364.22;4954754;28;45552;-69
2023/09/28 08:04:49;;;;;;;;;3.00;3.00;;;;;23.57;46.42;101383.34;4947530;28;67997;-70
2023/09/28 08:07:15;;;;;;;;;8.00;4.25;;;;;23.93;45.45;101388.22;4943415;28;45516;-70
2023/09/28 08:09:42;;;;;;;;;2.00;2.00;;;;;24.25;44.78;101364.63;4955334;28;45318;-69
2023/09/28 08:12:08;;;;;;;;;8.67;6.67;;;;;24.73;44.34;101382.28;4950611;28;46564;-69
2023/09/28 08:14:33;;;;;;;;;6.00;4.50;;;;;24.92;43.56;101348.63;4957939;28;45763;-69
2023/09/28 08:16:58;;;;;;;;;5.25;2.00;;;;;25.55;42.34;101380.25;4960193;28;45446;-69
2023/09/28 08:19:24;;;;;;;;;3.50;2.50;;;;;25.44;41.98;101302.91;4951000;28;45344;-69
2023/09/28 08:21:49;;;;;;;;;5.75;4.50;;;;;26.22;41.66;101381.88;4948370;28;46039;-79
2023/09/28 08:24:15;;;;;;;;;5.50;3.75;;;;;26.35;40.59;101338.09;4946438;28;45344;-70
2023/09/28 08:26:40;;;;;;;;;7.50;3.00;;;;;27.00;39.61;101400.00;4951163;28;45372;-69
2023/09/28 08:29:06;;;;;;;;;3.33;1.00;;;;;27.19;38.90;101404.28;4946509;28;45367;-69
2023/09/28 08:31:32;;;;;;;;;1.50;1.50;;;;;27.36;38.65;101415.31;4952009;28;45610;-69
2023/09/28 08:34:02;;;;;;;;;2.25;2.25;;;;;27.49;38.46;101409.59;4946747;28;45481;-70
2023/09/28 08:36:29;;;;;;;;;3.50;3.50;;;;;27.49;37.66;101416.97;4943591;28;45283;-70
2023/09/28 08:38:55;;;;;;;;;5.50;2.25;;;;;27.26;37.41;101404.16;4954225;28;45461;-69
2023/09/28 08:41:35;;;;;;;;;3.75;3.00;;;;;27.09;38.26;101382.22;4951110;28;46546;-69
2023/09/28 08:44:05;;;;;;;;;5.50;2.00;;;;;27.23;37.06;101423.72;4953227;28;45396;-73
2023/09/28 08:46:40;;;;;;;;;1.75;1.75;;;;;27.54;36.49;101425.25;4945540;28;45589;-70
2023/09/28 08:49:10;;;;;;;;;1.33;1.00;;;;;27.86;36.58;101423.81;4951248;28;45566;-69
2023/09/28 08:51:38;;;;;;;;;3.00;2.67;;;;;28.06;36.13;101404.25;4945474;28;46847;-69
2023/09/28 08:54:07;;;;;;;;;2.25;1.75;;;;;28.55;35.40;101429.25;4939890;28;45373;-69
2023/09/28 08:56:34;;;;;;;;;3.50;3.25;;;;;28.67;35.08;101416.31;4950378;28;45392;-68
2023/09/28 08:59:02;;;;;;;;;3.00;3.00;;;;;28.39;35.26;101398.03;4949781;28;45429;-69
2023/09/28 09:01:28;;;;;;;;;5.00;3.00;;;;;28.44;35.55;101409.09;4944203;28;47469;-69
2023/09/28 09:03:55;;;;;;;;;30.00;24.67;;;;;28.35;35.78;101393.31;4946450;28;45413;-69
2023/09/28 09:06:22;;;;;;;;;5.75;3.50;;;;;28.29;36.09;101370.53;4950262;28;45347;-69
2023/09/28 09:08:49;;;;;;;;;3.00;2.00;;;;;28.51;35.35;101394.41;4942810;28;45304;-68
2023/09/28 09:11:16;;;;;;;;;4.25;3.75;;;;;28.56;35.85;101398.06;4950033;28;45954;-68
2023/09/28 09:13:54;;;;;;;;;2.75;1.50;;;;;28.64;34.93;101397.69;4944088;28;45511;-70
2023/09/28 09:16:22;;;;;;;;;4.00;3.00;;;;;28.53;35.13;101349.31;4950393;28;45483;-68
2023/09/28 09:18:48;;;;;;;;;4.25;1.00;;;;;28.49;34.67;101361.84;4950359;28;45446;-68
2023/09/28 09:21:13;;;;;;;;;4.75;2.25;;;;;28.59;34.97;101383.88;4949248;28;47634;-69
2023/09/28 09:23:39;;;;;;;;;0.50;0.25;;;;;28.63;34.54;101376.00;4952060;28;45245;-68
2023/09/28 09:26:15;;;;;;;;;0.75;0.75;;;;;28.46;34.71;101382.31;4947413;28;45901;-69
2023/09/28 09:28:44;;;;;;;;;3.00;1.25;;;;;28.75;35.42;101374.84;4949527;28;45491;-70
2023/09/28 09:31:09;;;;;;;;;3.00;2.00;;;;;29.16;33.32;101352.75;4938410;28;47849;-70
2023/09/28 09:33:36;;;;;;;;;0.75;0.75;;;;;29.63;32.67;101388.75;4940368;28;45508;-69
2023/09/28 09:36:01;;;;;;;;;2.75;2.75;;;;;29.92;32.77;101389.38;4948252;28;45398;-69
2023/09/28 09:38:28;;;;;;;;;6.75;3.00;;;;;30.19;31.77;101394.91;4945813;28;45464;-69
2023/09/28 09:41:06;;;;;;;;;4.75;2.75;;;;;30.39;32.37;101383.31;4946215;28;46064;-68
2023/09/28 09:43:34;;;;;;;;;5.00;3.00;;;;;30.58;32.13;101399.13;4929184;28;45436;-69
2023/09/28 09:46:09;;;;;;;;;3.25;3.00;;;;;30.46;32.25;101389.41;4937956;28;45337;-69
2023/09/28 09:48:42;;;;;;;;;3.33;3.00;;;;;30.30;32.14;101380.22;4947144;28;45669;-69
2023/09/28 09:51:12;;;;;;;;;8.67;5.33;;;;;30.19;32.53;101387.50;4955815;28;46683;-68
2023/09/28 09:53:40;;;;;;;;;5.25;3.50;;;;;29.94;32.86;101399.00;4941719;28;45578;-69
2023/09/28 09:56:06;;;;;;;;;3.67;2.67;;;;;29.63;32.70;101402.44;4948042;28;45548;-70
2023/09/28 09:58:39;;;;;;;;;3.75;2.25;;;;;29.12;32.87;101363.41;4949313;28;45458;-69
2023/09/28 10:01:10;;;;;;;;;5.50;4.25;;;;;29.13;33.54;101413.50;4949202;28;45654;-69
2023/09/28 10:03:47;;;;;;;;;3.00;1.75;;;;;28.73;34.40;101377.00;4938947;28;45337;-69
2023/09/28 10:06:15;;;;;;;;;4.25;2.75;;;;;28.67;34.46;101397.19;4953293;28;45468;-69
2023/09/28 10:08:45;;;;;;;;;2.50;2.50;;;;;28.45;34.08;101388.88;4941507;28;45596;-70
2023/09/28 10:11:11;;;;;;;;;11.33;10.67;;;;;28.13;34.88;101377.59;4942298;28;46697;-70
2023/09/28 10:13:37;;;;;;;;;2.50;2.50;;;;;27.73;35.27;101371.31;4953546;28;45436;-70
2023/09/28 10:16:04;;;;;;;;;2.25;2.25;;;;;27.47;35.81;101389.91;4939058;28;46139;-70
2023/09/28 10:18:30;;;;;;;;;2.00;1.67;;;;;26.90;36.25;101343.28;4946293;28;45460;-70
2023/09/28 10:20:59;;;;;;;;;2.00;2.00;;;;;26.80;36.53;101359.38;4945774;28;46387;-69
2023/09/28 10:23:26;;;;;;;;;4.25;2.50;;;;;26.67;37.10;101379.56;4945858;28;45365;-71
2023/09/28 10:26:13;;;;;;;;;5.67;4.00;;;;;26.55;37.54;101375.97;4946445;28;45520;-70
2023/09/28 10:29:06;;;;;;;;;2.00;1.50;;;;;26.34;37.66;101366.44;4920909;28;45566;-70
2023/09/28 10:31:41;;;;;;;;;5.33;5.33;;;;;26.15;38.23;101372.97;4945840;28;46747;-70
2023/09/28 10:34:09;;;;;;;;;4.00;2.00;;;;;26.06;38.55;101345.25;4944750;28;45333;-69
2023/09/28 10:36:39;;;;;;;;;2.00;2.00;;;;;26.21;38.57;101372.03;4939288;28;45598;-69
2023/09/28 10:39:17;;;;;;;;;5.67;3.67;;;;;26.24;39.11;101374.34;4941277;28;45426;-70
2023/09/28 10:41:45;;;;;;;;;2.25;2.25;;;;;26.07;38.59;101337.91;4947612;28;47091;-69
2023/09/28 10:44:21;;;;;;;;;2.25;2.25;;;;;26.30;37.83;101373.41;4935506;28;45666;-77
2023/09/28 10:46:48;;;;;;;;;1.25;1.25;;;;;26.11;37.55;101340.97;4944642;28;46941;-69
2023/09/28 10:49:23;;;;;;;;;7.67;4.00;;;;;26.14;38.17;101354.97;4955244;28;45616;-70
2023/09/28 10:51:49;;;;;;;;;2.50;1.00;;;;;26.04;38.53;101352.00;4954244;28;46803;-70
2023/09/28 10:54:15;;;;;;;;;3.25;3.25;;;;;26.03;38.47;101344.88;4955756;28;45541;-71
2023/09/28 10:56:40;;;;;;;;;4.75;2.75;;;;;26.14;38.89;101354.97;4944252;28;45421;-69
2023/09/28 10:59:07;;;;;;;;;4.67;4.00;;;;;26.15;38.51;101353.91;4930116;28;45430;-76
2023/09/28 11:01:32;;;;;;;;;4.00;2.00;;;;;26.14;38.35;101360.41;4947298;28;47393;-70
2023/09/28 11:03:58;;;;;;;;;6.33;6.33;;;;;26.05;38.21;101359.09;4943996;28;45521;-69
2023/09/28 11:06:24;;;;;;;;;4.25;2.75;;;;;25.94;38.34;101359.88;4941565;28;45439;-69
2023/09/28 11:08:49;;;;;;;;;1.00;1.00;;;;;25.77;38.35;101341.44;4950733;28;45446;-69
2023/09/28 11:11:17;;;;;;;;;2.00;2.00;;;;;25.74;38.37;101341.91;4949211;28;46751;-70
2023/09/28 11:13:43;;;;;;;;;2.75;2.50;;;;;25.64;38.48;101341.59;4945325;28;45579;-71
2023/09/28 11:16:11;;;;;;;;;3.00;3.00;;;;;25.59;37.98;101354.22;4954101;28;45496;-71
2023/09/28 11:18:37;;;;;;;;;3.75;1.75;;;;;25.45;38.51;101345.41;4948335;28;45438;-69
2023/09/28 11:21:03;;;;;;;;;2.50;2.50;;;;;25.37;39.04;101332.06;4958872;28;45762;-69
2023/09/28 11:23:29;;;;;;;;;2.75;2.00;;;;;25.63;38.56;101358.13;4951368;28;45383;-70